Time;durP1;ratioP1;P1;durP2;ratioP2;P2;SDS_P1;SDS_P2;PMS_P1;PMS_P2;Temp;Humidity;BMP_temperature;BMP_pressure;BME280_temperature;BME280_humidity;BME280_pressure;Samples;Min_cycle;Max_cycle;Signal;HPM_P1;HPM_P2
2022/09/04 00:00:00;;;;;;;7.17;4.70;;;21.60;91.00;;;;;;5122623;27;20214;-69
2022/09/04 00:03:03;;;;;;;7.40;5.10;;;21.50;91.10;;;;;;5107588;28;20208;-68
2022/09/04 00:05:36;;;;;;;5.80;5.00;;;21.50;91.00;;;;;;5116789;27;20205;-68
2022/09/04 00:08:10;;;;;;;5.87;5.37;;;21.50;91.00;;;;;;5119603;27;20203;-68
2022/09/04 00:11:00;;;;;;;6.50;5.20;;;21.50;91.00;;;;;;5107328;27;20195;-68
2022/09/04 00:13:34;;;;;;;7.13;5.67;;;21.40;91.10;;;;;;5101777;28;20208;-68
2022/09/04 00:16:06;;;;;;;5.77;5.10;;;21.50;91.20;;;;;;5115556;27;20207;-68
2022/09/04 00:19:25;;;;;;;6.97;5.30;;;21.40;91.20;;;;;;5102484;28;20236;-68
2022/09/04 00:22:01;;;;;;;8.77;5.37;;;21.40;91.30;;;;;;5060134;28;20205;-69
2022/09/04 00:24:35;;;;;;;7.07;6.07;;;21.40;91.40;;;;;;5100228;27;20227;-69
2022/09/04 00:27:20;;;;;;;10.90;5.60;;;21.40;91.50;;;;;;5114802;27;20208;-69
2022/09/04 00:30:10;;;;;;;7.23;5.67;;;21.40;91.50;;;;;;5083963;28;20208;-69
2022/09/04 00:32:53;;;;;;;12.70;6.60;;;21.40;91.50;;;;;;5101742;27;20219;-69
2022/09/04 00:35:30;;;;;;;7.37;6.57;;;21.30;91.50;;;;;;5109501;27;20200;-69
2022/09/04 00:38:10;;;;;;;7.20;6.40;;;21.40;91.50;;;;;;5119456;27;20620;-69
2022/09/04 00:41:00;;;;;;;8.37;5.93;;;21.30;91.50;;;;;;5115943;27;20762;-68
2022/09/04 00:43:51;;;;;;;9.07;6.70;;;21.30;91.50;;;;;;5112708;27;20212;-69
2022/09/04 00:46:30;;;;;;;9.40;6.10;;;21.30;91.40;;;;;;5091954;28;20202;-69
2022/09/04 00:49:31;;;;;;;7.37;6.77;;;21.30;91.40;;;;;;5094404;27;20208;-69
2022/09/04 00:52:29;;;;;;;8.33;6.33;;;21.30;91.30;;;;;;5120633;27;20663;-69
2022/09/04 00:55:08;;;;;;;8.33;6.43;;;21.20;91.20;;;;;;5122009;27;20211;-69
2022/09/04 00:57:50;;;;;;;7.17;6.47;;;21.10;91.30;;;;;;5114975;28;20295;-69
2022/09/04 01:00:19;;;;;;;7.87;6.47;;;21.10;91.40;;;;;;5073433;28;20668;-68
2022/09/04 01:03:40;;;;;;;7.37;6.67;;;21.10;91.50;;;;;;5100857;28;20215;-68
2022/09/04 01:06:31;;;;;;;8.23;5.87;;;21.10;91.70;;;;;;5016965;28;20235;-68
2022/09/04 01:09:01;;;;;;;8.87;7.00;;;21.10;91.60;;;;;;5113373;28;20215;-68
2022/09/04 01:11:49;;;;;;;8.13;6.57;;;21.10;91.60;;;;;;5117097;28;20210;-69
2022/09/04 01:14:41;;;;;;;7.37;6.23;;;21.10;91.50;;;;;;5118414;28;20195;-68
2022/09/04 01:17:14;;;;;;;8.73;7.50;;;21.00;91.50;;;;;;5098114;28;20222;-69
2022/09/04 01:20:20;;;;;;;11.30;7.73;;;21.00;91.60;;;;;;5117698;28;20318;-69
2022/09/04 01:23:07;;;;;;;8.53;7.73;;;21.00;91.80;;;;;;5100535;28;20227;-68
2022/09/04 01:26:03;;;;;;;10.20;6.77;;;21.00;91.80;;;;;;5095418;28;20239;-68
2022/09/04 01:29:09;;;;;;;8.00;7.20;;;21.00;91.90;;;;;;5094972;28;20205;-68
2022/09/04 01:32:15;;;;;;;8.47;7.57;;;21.00;92.00;;;;;;5101598;28;20206;-68
2022/09/04 01:34:51;;;;;;;8.07;7.37;;;21.00;91.90;;;;;;5083893;27;20295;-68
2022/09/04 01:37:46;;;;;;;11.97;8.10;;;21.00;91.90;;;;;;5087981;27;20628;-69
2022/09/04 01:40:39;;;;;;;7.83;6.87;;;21.00;91.90;;;;;;5105083;27;20649;-69
2022/09/04 01:43:10;;;;;;;8.20;7.50;;;21.00;91.60;;;;;;5116725;27;20626;-68
2022/09/04 01:45:41;;;;;;;9.17;8.27;;;20.90;91.60;;;;;;5104560;28;20689;-69
2022/09/04 01:48:14;;;;;;;10.50;8.07;;;20.90;91.60;;;;;;5103303;27;20610;-69
2022/09/04 01:50:47;;;;;;;7.67;6.97;;;20.90;91.80;;;;;;5097104;28;20216;-68
2022/09/04 01:53:25;;;;;;;8.40;7.27;;;20.90;91.80;;;;;;5097994;28;20202;-68
2022/09/04 01:56:18;;;;;;;10.07;8.73;;;20.90;91.90;;;;;;5124757;27;20206;-69
2022/09/04 01:58:54;;;;;;;8.77;7.93;;;20.90;92.00;;;;;;5126585;27;20200;-69
2022/09/04 02:01:28;;;;;;;9.77;8.60;;;20.90;92.10;;;;;;5121245;27;20199;-69
2022/09/04 02:04:10;;;;;;;9.60;8.67;;;20.90;92.10;;;;;;5122098;27;20273;-68
2022/09/04 02:07:22;;;;;;;10.13;9.23;;;20.90;92.10;;;;;;5091839;27;20208;-69
2022/09/04 02:10:01;;;;;;;10.50;9.17;;;20.90;92.10;;;;;;5065443;27;20223;-68
2022/09/04 02:12:57;;;;;;;14.67;9.00;;;20.90;92.10;;;;;;5107793;27;20230;-69
2022/09/04 02:15:48;;;;;;;13.73;9.27;;;20.90;92.20;;;;;;5112896;27;20799;-69
2022/09/04 02:18:23;;;;;;;12.37;9.03;;;20.90;92.20;;;;;;5116343;27;20210;-69
2022/09/04 02:21:06;;;;;;;11.20;9.00;;;20.80;92.20;;;;;;5121568;27;20210;-69
2022/09/04 02:23:51;;;;;;;9.60;8.43;;;20.80;92.20;;;;;;5074039;28;20201;-69
2022/09/04 02:26:49;;;;;;;12.10;9.63;;;20.70;92.20;;;;;;5104333;27;20218;-69
2022/09/04 02:29:16;;;;;;;10.60;9.60;;;20.70;92.30;;;;;;5121529;27;20213;-69
2022/09/04 02:31:55;;;;;;;10.67;9.27;;;20.70;92.30;;;;;;5120302;27;20515;-69
2022/09/04 02:34:38;;;;;;;11.00;9.13;;;20.70;92.40;;;;;;5112338;27;20283;-69
2022/09/04 02:37:23;;;;;;;9.87;8.87;;;20.70;92.40;;;;;;5113064;27;20195;-69
2022/09/04 02:40:02;;;;;;;9.03;8.13;;;20.70;92.40;;;;;;5101464;27;20199;-69
2022/09/04 02:42:41;;;;;;;13.47;9.27;;;20.70;92.40;;;;;;5117763;27;20200;-68
2022/09/04 02:45:30;;;;;;;9.83;9.03;;;20.60;92.30;;;;;;5088387;27;20235;-69
2022/09/04 02:48:18;;;;;;;12.83;8.67;;;20.60;92.30;;;;;;5092949;27;20222;-69
2022/09/04 02:51:08;;;;;;;8.93;6.90;;;20.60;92.40;;;;;;5118498;27;20200;-69
2022/09/04 02:53:48;;;;;;;8.87;8.10;;;20.60;92.50;;;;;;5119752;27;20206;-69
2022/09/04 02:56:51;;;;;;;9.07;8.27;;;20.60;92.40;;;;;;5106578;27;20234;-68
2022/09/04 02:59:53;;;;;;;11.30;8.90;;;20.50;92.40;;;;;;5111233;27;20207;-68
2022/09/04 03:02:23;;;;;;;9.57;8.67;;;20.50;92.50;;;;;;5097848;28;20214;-69
2022/09/04 03:05:20;;;;;;;9.80;8.90;;;20.50;92.50;;;;;;5124254;27;20203;-69
2022/09/04 03:08:29;;;;;;;9.33;8.47;;;20.50;92.60;;;;;;5122223;27;20211;-69
2022/09/04 03:11:40;;;;;;;10.87;8.73;;;20.50;92.60;;;;;;5083951;27;20215;-70
2022/09/04 03:14:50;;;;;;;14.53;9.23;;;20.50;92.60;;;;;;5099768;27;20198;-69
2022/09/04 03:17:46;;;;;;;11.10;10.10;;;20.50;92.50;;;;;;5094577;27;20528;-68
2022/09/04 03:20:22;;;;;;;10.10;9.10;;;20.40;92.40;;;;;;5067958;27;20261;-69
2022/09/04 03:23:19;;;;;;;9.57;8.77;;;20.40;92.40;;;;;;5117426;27;20654;-69
2022/09/04 03:25:58;;;;;;;9.13;8.23;;;20.40;92.50;;;;;;5084206;28;20206;-69
2022/09/04 03:29:08;;;;;;;9.00;8.07;;;20.30;92.50;;;;;;5100971;27;20199;-69
2022/09/04 03:31:44;;;;;;;10.50;7.83;;;20.30;92.50;;;;;;5113934;27;20656;-68
2022/09/04 03:34:45;;;;;;;11.87;8.57;;;20.30;92.50;;;;;;5085339;27;20255;-69
2022/09/04 03:37:15;;;;;;;10.63;9.23;;;20.30;92.50;;;;;;5122005;27;20198;-69
2022/09/04 03:40:14;;;;;;;10.30;9.30;;;20.30;92.50;;;;;;5084856;28;20580;-69
2022/09/04 03:43:16;;;;;;;10.27;9.37;;;20.30;92.50;;;;;;5040763;27;20231;-69
2022/09/04 03:46:11;;;;;;;10.77;9.37;;;20.30;92.60;;;;;;5084221;27;20248;-69
2022/09/04 03:49:13;;;;;;;10.07;9.17;;;20.30;92.60;;;;;;5124174;27;20211;-69
2022/09/04 03:52:16;;;;;;;11.30;10.10;;;20.30;92.70;;;;;;5087149;27;20206;-69
2022/09/04 03:55:04;;;;;;;13.63;9.73;;;20.20;92.70;;;;;;5097990;27;20220;-69
2022/09/04 03:57:50;;;;;;;11.07;9.97;;;20.20;92.70;;;;;;5117965;27;20187;-69
2022/09/04 04:00:19;;;;;;;12.47;11.37;;;20.20;92.70;;;;;;5125921;27;20199;-69
2022/09/04 04:03:04;;;;;;;13.83;11.47;;;20.20;92.70;;;;;;5100911;27;20293;-69
2022/09/04 04:05:35;;;;;;;11.53;10.53;;;20.20;92.70;;;;;;5109605;27;20251;-68
2022/09/04 04:08:26;;;;;;;12.67;11.43;;;20.20;92.80;;;;;;5114156;27;20637;-68
2022/09/04 04:11:28;;;;;;;12.07;10.97;;;20.20;92.90;;;;;;5120276;27;20203;-69
2022/09/04 04:14:34;;;;;;;12.87;11.57;;;20.20;92.90;;;;;;5119103;27;20191;-69
2022/09/04 04:17:20;;;;;;;12.97;11.67;;;20.20;92.90;;;;;;5100673;28;20204;-69
2022/09/04 04:19:54;;;;;;;13.40;12.10;;;20.20;92.90;;;;;;5108610;27;20666;-68
2022/09/04 04:22:33;;;;;;;14.40;12.97;;;20.20;92.90;;;;;;5111422;27;20214;-69
2022/09/04 04:25:36;;;;;;;13.63;12.33;;;20.20;92.90;;;;;;5103607;27;20239;-69
2022/09/04 04:28:38;;;;;;;16.67;12.83;;;20.20;93.00;;;;;;5117586;27;20648;-69
2022/09/04 04:31:38;;;;;;;15.47;13.60;;;20.20;92.90;;;;;;5018213;28;20209;-68
2022/09/04 04:34:25;;;;;;;14.63;13.10;;;20.20;92.80;;;;;;5065655;28;20499;-69
2022/09/04 04:37:26;;;;;;;15.70;13.63;;;20.30;92.80;;;;;;5100798;27;20198;-69
2022/09/04 04:40:01;;;;;;;16.13;14.53;;;20.20;92.80;;;;;;5112671;27;20524;-68
2022/09/04 04:42:59;;;;;;;17.33;15.30;;;20.20;92.90;;;;;;5117260;27;20218;-69
2022/09/04 04:45:49;;;;;;;16.87;13.83;;;20.20;93.00;;;;;;5097510;28;20249;-68
2022/09/04 04:48:54;;;;;;;14.93;13.60;;;20.20;93.10;;;;;;5111748;27;20200;-68
2022/09/04 04:51:39;;;;;;;15.50;14.03;;;20.20;93.10;;;;;;5117300;27;20194;-68
2022/09/04 04:54:39;;;;;;;16.87;15.27;;;20.30;93.10;;;;;;5117929;27;20259;-69
2022/09/04 04:57:12;;;;;;;15.63;14.13;;;20.30;93.10;;;;;;5070158;28;20206;-69
2022/09/04 05:00:07;;;;;;;16.10;14.47;;;20.30;93.00;;;;;;5096937;28;20656;-69
2022/09/04 05:02:55;;;;;;;15.07;13.77;;;20.30;93.00;;;;;;5100993;28;20316;-69
2022/09/04 05:05:59;;;;;;;16.60;14.83;;;20.30;93.00;;;;;;5118228;27;20301;-69
2022/09/04 05:09:02;;;;;;;19.33;15.17;;;20.30;92.90;;;;;;5113619;27;20226;-69
2022/09/04 05:11:38;;;;;;;15.20;13.63;;;20.30;93.00;;;;;;5108756;27;20250;-68
2022/09/04 05:14:24;;;;;;;15.83;12.50;;;20.30;93.10;;;;;;5122946;27;20527;-69
2022/09/04 05:17:04;;;;;;;16.07;12.67;;;20.40;93.10;;;;;;5120517;27;20208;-69
2022/09/04 05:19:49;;;;;;;14.23;12.83;;;20.40;93.10;;;;;;5077129;27;20240;-69
2022/09/04 05:22:47;;;;;;;15.40;13.90;;;20.40;93.00;;;;;;5119490;27;20627;-69
2022/09/04 05:25:39;;;;;;;15.03;13.67;;;20.50;92.90;;;;;;5122484;27;20210;-68
2022/09/04 05:28:14;;;;;;;14.37;13.13;;;20.60;92.80;;;;;;5110008;27;20222;-69
2022/09/04 05:31:08;;;;;;;14.50;13.10;;;20.70;92.60;;;;;;5118312;27;20188;-68
2022/09/04 05:33:50;;;;;;;14.83;12.83;;;20.70;92.60;;;;;;5091776;28;20231;-69
2022/09/04 05:36:30;;;;;;;14.10;12.70;;;20.70;92.60;;;;;;5106149;27;20258;-68
2022/09/04 05:38:57;;;;;;;13.20;11.90;;;20.80;92.70;;;;;;5118274;27;20203;-69
2022/09/04 05:41:42;;;;;;;14.67;13.37;;;20.90;92.80;;;;;;5122594;27;20230;-68
2022/09/04 05:44:50;;;;;;;14.93;13.50;;;20.90;92.70;;;;;;5122895;27;20207;-68
2022/09/04 05:47:30;;;;;;;13.73;12.30;;;20.90;92.70;;;;;;5119274;27;20225;-69
2022/09/04 05:50:03;;;;;;;13.43;12.17;;;21.00;92.70;;;;;;5121859;27;20206;-69
2022/09/04 05:52:51;;;;;;;14.97;13.67;;;21.10;92.60;;;;;;5110567;28;20212;-69
2022/09/04 05:55:35;;;;;;;14.60;13.30;;;21.20;92.50;;;;;;5099355;28;20219;-69
2022/09/04 05:58:11;;;;;;;15.47;14.07;;;21.20;92.40;;;;;;5097377;27;20213;-69
2022/09/04 06:01:22;;;;;;;15.50;14.07;;;21.30;92.30;;;;;;5118409;27;20211;-69
2022/09/04 06:04:15;;;;;;;15.77;14.37;;;21.50;92.20;;;;;;5069259;27;20221;-69
2022/09/04 06:07:15;;;;;;;15.73;14.03;;;21.70;92.10;;;;;;5119392;27;20687;-69
2022/09/04 06:09:44;;;;;;;15.77;14.23;;;22.10;91.60;;;;;;5120331;27;20307;-69
2022/09/04 06:12:25;;;;;;;15.00;13.60;;;22.50;90.70;;;;;;5103143;27;20193;-69
2022/09/04 06:15:04;;;;;;;14.73;13.47;;;22.80;90.00;;;;;;5100578;27;20204;-69
2022/09/04 06:17:56;;;;;;;15.60;14.13;;;23.10;88.80;;;;;;5116737;27;20295;-69
2022/09/04 06:21:10;;;;;;;16.70;14.63;;;23.30;88.10;;;;;;5113873;27;20288;-69
2022/09/04 06:23:49;;;;;;;17.63;15.83;;;23.50;87.60;;;;;;5064824;27;20314;-69
2022/09/04 06:26:43;;;;;;;16.07;14.67;;;23.50;87.10;;;;;;5100543;27;20604;-69
2022/09/04 06:29:21;;;;;;;17.77;16.07;;;23.50;86.90;;;;;;5121244;27;20187;-68
2022/09/04 06:31:56;;;;;;;16.90;15.17;;;23.50;87.30;;;;;;5104764;27;20211;-69
2022/09/04 06:34:41;;;;;;;16.53;14.97;;;23.40;86.80;;;;;;5104242;28;20529;-69
2022/09/04 06:37:31;;;;;;;16.87;15.07;;;23.40;86.80;;;;;;5098789;27;20557;-68
2022/09/04 06:40:19;;;;;;;17.73;16.10;;;23.30;87.10;;;;;;5113131;27;20211;-69
2022/09/04 06:43:09;;;;;;;17.47;15.87;;;23.30;87.70;;;;;;5119454;27;20197;-69
2022/09/04 06:45:52;;;;;;;18.30;16.40;;;23.40;88.10;;;;;;5098581;27;20209;-69
2022/09/04 06:48:55;;;;;;;18.43;16.73;;;23.50;88.10;;;;;;5098499;27;20200;-69
2022/09/04 06:51:44;;;;;;;19.00;17.20;;;23.60;88.10;;;;;;5101989;27;20200;-69
2022/09/04 06:54:23;;;;;;;18.17;16.57;;;23.70;88.00;;;;;;5117238;27;20204;-69
2022/09/04 06:57:08;;;;;;;20.67;17.83;;;23.80;87.70;;;;;;5103839;28;20546;-69
2022/09/04 07:00:03;;;;;;;19.50;17.60;;;23.80;86.50;;;;;;5104892;27;20212;-69
2022/09/04 07:03:04;;;;;;;38.70;34.00;;;23.90;86.30;;;;;;5079359;27;20553;-69
2022/09/04 07:05:56;;;;;;;19.13;17.33;;;24.00;86.30;;;;;;5116789;27;20216;-69
2022/09/04 07:08:52;;;;;;;19.50;17.23;;;24.10;86.30;;;;;;5124266;27;20205;-70
2022/09/04 07:11:27;;;;;;;26.00;23.50;;;24.20;86.10;;;;;;5119713;27;20203;-69
2022/09/04 07:14:15;;;;;;;20.43;18.43;;;24.30;85.70;;;;;;5117580;27;20211;-69
2022/09/04 07:17:24;;;;;;;19.87;18.17;;;24.40;85.50;;;;;;5115266;27;20204;-69
2022/09/04 07:20:09;;;;;;;18.03;16.33;;;24.50;85.10;;;;;;5098633;27;20241;-70
2022/09/04 07:22:52;;;;;;;21.67;19.47;;;24.60;84.80;;;;;;5118319;27;20536;-70
2022/09/04 07:25:28;;;;;;;20.13;18.23;;;24.70;84.40;;;;;;5102594;27;20521;-69
2022/09/04 07:28:46;;;;;;;20.30;18.27;;;24.80;84.10;;;;;;5113245;27;20199;-70
2022/09/04 07:31:25;;;;;;;20.73;18.80;;;25.00;83.50;;;;;;5098007;27;20214;-69
2022/09/04 07:34:01;;;;;;;19.77;17.77;;;25.10;83.30;;;;;;5107556;27;20200;-69
2022/09/04 07:36:53;;;;;;;19.87;17.00;;;25.20;83.10;;;;;;5105927;27;20212;-69
2022/09/04 07:40:07;;;;;;;19.73;17.73;;;25.30;82.50;;;;;;5116110;27;20270;-69
2022/09/04 07:42:47;;;;;;;19.73;17.87;;;25.50;81.50;;;;;;5094982;27;20656;-69
2022/09/04 07:45:49;;;;;;;18.73;16.83;;;25.60;80.70;;;;;;5113834;27;20204;-70
2022/09/04 07:48:31;;;;;;;19.90;18.03;;;25.60;80.20;;;;;;5118237;27;20248;-69
2022/09/04 07:51:08;;;;;;;20.03;18.17;;;25.60;80.10;;;;;;5124601;27;20277;-69
2022/09/04 07:53:51;;;;;;;17.80;16.00;;;25.70;80.10;;;;;;5111707;27;20628;-69
2022/09/04 07:56:40;;;;;;;18.60;16.80;;;25.80;80.30;;;;;;5117858;27;20200;-69
2022/09/04 07:59:55;;;;;;;19.07;17.27;;;25.90;79.60;;;;;;5083522;27;20678;-69
2022/09/04 08:02:38;;;;;;;21.20;18.20;;;26.10;79.90;;;;;;5096429;27;20287;-69
2022/09/04 08:05:23;;;;;;;14.47;12.97;;;26.40;79.00;;;;;;5101796;27;20200;-69
2022/09/04 08:08:09;;;;;;;15.60;14.00;;;26.60;77.40;;;;;;5115690;27;20281;-69
2022/09/04 08:11:06;;;;;;;13.37;12.03;;;26.80;76.70;;;;;;5105127;27;20212;-69
2022/09/04 08:13:52;;;;;;;13.63;12.20;;;26.90;75.50;;;;;;5098765;27;20642;-69
2022/09/04 08:16:40;;;;;;;8.53;7.60;;;27.00;74.90;;;;;;5097250;28;20207;-69
2022/09/04 08:19:16;;;;;;;10.80;9.73;;;27.20;73.60;;;;;;5120193;27;20778;-70
2022/09/04 08:21:47;;;;;;;11.43;10.40;;;27.30;73.50;;;;;;5103981;27;20202;-70
2022/09/04 08:24:52;;;;;;;12.93;11.47;;;27.40;73.70;;;;;;5102590;28;20544;-70
2022/09/04 08:27:32;;;;;;;10.63;9.13;;;27.50;72.90;;;;;;5114428;27;20246;-69
2022/09/04 08:30:10;;;;;;;12.70;11.60;;;27.70;72.50;;;;;;5099123;28;20622;-69
2022/09/04 08:32:40;;;;;;;8.13;6.60;;;27.80;72.10;;;;;;5113473;27;20209;-69
2022/09/04 08:35:23;;;;;;;9.03;6.40;;;27.80;71.80;;;;;;5116312;27;20196;-69
2022/09/04 08:38:36;;;;;;;5.50;4.80;;;27.80;72.10;;;;;;5096939;27;20203;-69
2022/09/04 08:41:12;;;;;;;6.47;5.30;;;27.90;72.10;;;;;;4996366;28;20207;-69
2022/09/04 08:44:09;;;;;;;5.00;4.50;;;28.00;72.00;;;;;;5100798;27;20238;-69
2022/09/04 08:46:55;;;;;;;5.50;4.93;;;28.20;70.30;;;;;;5090632;28;20558;-70
2022/09/04 08:49:28;;;;;;;7.97;6.53;;;28.30;69.90;;;;;;5082550;28;20207;-69
2022/09/04 08:52:13;;;;;;;7.40;6.60;;;28.50;69.40;;;;;;5086544;28;20204;-69
2022/09/04 08:55:01;;;;;;;7.77;6.30;;;28.60;68.90;;;;;;5114632;27;20195;-69
2022/09/04 08:57:52;;;;;;;7.50;5.27;;;28.70;68.70;;;;;;5080242;28;20277;-69
2022/09/04 09:00:21;;;;;;;5.50;4.50;;;28.80;68.30;;;;;;5084757;28;20215;-69
2022/09/04 09:03:12;;;;;;;3.87;3.60;;;28.90;67.10;;;;;;5100400;28;20287;-69
2022/09/04 09:05:52;;;;;;;5.70;4.63;;;28.80;64.20;;;;;;5117955;28;20195;-69
2022/09/04 09:08:56;;;;;;;4.80;4.40;;;28.80;64.60;;;;;;5099387;28;20204;-69
2022/09/04 09:11:35;;;;;;;4.43;3.50;;;28.80;63.40;;;;;;5114983;28;20195;-69
2022/09/04 09:14:08;;;;;;;3.27;2.60;;;28.80;63.30;;;;;;5098376;28;20216;-70
2022/09/04 09:17:04;;;;;;;5.27;4.70;;;28.80;63.20;;;;;;5108605;28;20218;-69
2022/09/04 09:19:50;;;;;;;5.00;3.93;;;28.80;63.00;;;;;;5084375;28;20628;-69
2022/09/04 09:23:08;;;;;;;2.60;2.40;;;28.80;63.30;;;;;;5117275;28;20230;-69
2022/09/04 09:26:10;;;;;;;7.10;4.00;;;28.80;62.50;;;;;;5104100;28;20200;-69
2022/09/04 09:29:15;;;;;;;3.47;3.03;;;28.90;62.90;;;;;;5101637;28;20203;-69
2022/09/04 09:31:51;;;;;;;4.13;1.67;;;28.90;63.30;;;;;;5098182;28;20623;-69
2022/09/04 09:34:53;;;;;;;4.97;2.40;;;28.90;56.70;;;;;;5117521;28;20227;-69
2022/09/04 09:37:29;;;;;;;4.20;3.87;;;28.90;58.90;;;;;;5114409;28;20267;-69
2022/09/04 09:40:21;;;;;;;4.47;2.57;;;29.00;61.00;;;;;;5100478;28;20232;-71
2022/09/04 09:43:26;;;;;;;3.10;2.67;;;29.00;61.00;;;;;;5114802;28;20220;-69
2022/09/04 09:46:16;;;;;;;2.43;2.23;;;29.10;59.20;;;;;;5118421;28;20207;-69
2022/09/04 09:49:20;;;;;;;2.47;2.27;;;29.20;56.80;;;;;;5117950;28;20592;-69
2022/09/04 09:52:06;;;;;;;2.97;1.90;;;29.10;57.40;;;;;;5087479;27;20661;-69
2022/09/04 09:55:01;;;;;;;3.87;2.37;;;29.10;57.20;;;;;;5118449;27;20196;-69
2022/09/04 09:57:48;;;;;;;2.37;2.20;;;29.10;57.70;;;;;;5094356;28;20204;-69
2022/09/04 10:00:17;;;;;;;2.60;2.40;;;29.20;57.90;;;;;;5113490;27;20209;-69
2022/09/04 10:03:06;;;;;;;2.80;1.70;;;29.30;57.30;;;;;;5117086;27;20777;-69
2022/09/04 10:05:57;;;;;;;2.07;1.97;;;29.30;56.70;;;;;;5093288;27;20204;-69
2022/09/04 10:08:49;;;;;;;1.93;1.80;;;29.30;57.00;;;;;;5121073;27;20207;-69
2022/09/04 10:11:49;;;;;;;6.23;1.80;;;29.50;57.10;;;;;;5120542;27;20209;-68
2022/09/04 10:14:40;;;;;;;3.33;1.77;;;29.60;56.00;;;;;;5115967;27;20196;-68
2022/09/04 10:17:16;;;;;;;2.20;2.00;;;29.80;55.80;;;;;;5102738;27;20536;-68
2022/09/04 10:20:02;;;;;;;5.10;2.17;;;29.80;55.90;;;;;;5120257;27;20231;-69
2022/09/04 10:23:04;;;;;;;3.47;2.53;;;29.80;56.40;;;;;;5100224;28;20205;-68
2022/09/04 10:25:50;;;;;;;2.93;1.93;;;29.80;56.30;;;;;;5083511;27;20794;-68
2022/09/04 10:28:39;;;;;;;2.00;1.83;;;29.80;54.30;;;;;;5123563;27;20219;-68
2022/09/04 10:31:25;;;;;;;2.40;1.90;;;29.70;53.90;;;;;;5088239;27;20192;-69
2022/09/04 10:33:52;;;;;;;3.30;1.90;;;29.80;54.80;;;;;;5093312;27;20199;-69
2022/09/04 10:36:29;;;;;;;1.93;1.73;;;29.80;54.50;;;;;;5118524;27;20203;-69
2022/09/04 10:42:46;;;;;;;2.97;2.00;;;30.00;54.40;;;;;;5115641;27;20196;-69
2022/09/04 10:45:24;;;;;;;2.07;1.77;;;30.00;55.50;;;;;;5116476;27;20221;-69
2022/09/04 10:48:11;;;;;;;3.27;2.10;;;30.10;54.00;;;;;;5104692;27;20747;-68
2022/09/04 10:51:00;;;;;;;4.03;2.00;;;30.10;54.60;;;;;;5118968;27;20192;-69
2022/09/04 10:53:48;;;;;;;2.30;1.90;;;30.20;54.30;;;;;;5120404;27;20200;-69
2022/09/04 10:56:48;;;;;;;4.17;1.83;;;30.30;53.70;;;;;;5113724;27;20203;-69
2022/09/04 10:59:14;;;;;;;3.20;2.00;;;30.30;54.70;;;;;;5080986;27;20212;-69
2022/09/04 11:02:02;;;;;;;1.83;1.70;;;30.40;53.70;;;;;;5107030;27;20232;-69
2022/09/04 11:05:00;;;;;;;4.00;2.07;;;30.30;53.80;;;;;;5111722;27;20212;-69
2022/09/04 11:07:50;;;;;;;2.77;1.77;;;30.30;53.60;;;;;;5097683;27;20216;-69
2022/09/04 11:10:44;;;;;;;3.30;2.07;;;30.40;53.60;;;;;;5104983;27;20196;-69
2022/09/04 11:14:05;;;;;;;2.90;2.40;;;30.60;53.60;;;;;;5122121;27;20222;-69
2022/09/04 11:16:50;;;;;;;2.13;1.93;;;30.60;53.20;;;;;;5067432;27;20221;-69
2022/09/04 11:19:42;;;;;;;2.00;1.90;;;30.70;53.10;;;;;;5116112;27;20240;-69
2022/09/04 11:22:33;;;;;;;1.77;1.63;;;30.60;53.70;;;;;;5116306;27;20204;-70
2022/09/04 11:25:18;;;;;;;1.80;1.70;;;30.70;53.10;;;;;;5088994;27;20211;-69
2022/09/04 11:28:00;;;;;;;4.63;2.03;;;30.80;53.20;;;;;;5077870;28;20251;-69
2022/09/04 11:30:42;;;;;;;1.90;1.70;;;30.80;53.70;;;;;;5103258;27;20279;-69
2022/09/04 11:33:23;;;;;;;2.43;2.23;;;30.80;52.40;;;;;;5118642;27;20200;-69
2022/09/04 11:36:05;;;;;;;2.17;1.87;;;30.80;52.50;;;;;;5104029;27;20203;-69
2022/09/04 11:39:13;;;;;;;2.03;1.87;;;30.80;52.80;;;;;;5119016;27;20204;-69
2022/09/04 11:41:43;;;;;;;2.57;2.17;;;30.80;52.60;;;;;;5076048;28;20200;-69
2022/09/04 11:44:45;;;;;;;2.43;1.70;;;30.80;53.40;;;;;;5109061;28;20284;-69
2022/09/04 11:47:30;;;;;;;2.77;1.90;;;30.80;52.30;;;;;;5093881;28;20216;-68
2022/09/04 11:50:25;;;;;;;1.90;1.80;;;30.90;53.00;;;;;;5096812;28;20189;-68
2022/09/04 11:53:13;;;;;;;1.90;1.80;;;30.90;51.50;;;;;;5098396;27;20211;-69
2022/09/04 11:55:40;;;;;;;2.13;1.90;;;30.90;52.10;;;;;;5114001;27;20189;-68
2022/09/04 11:58:35;;;;;;;2.00;1.80;;;31.00;52.10;;;;;;5114765;27;20197;-68
2022/09/04 12:01:15;;;;;;;2.23;2.03;;;31.10;52.40;;;;;;5119710;27;20219;-69
2022/09/04 12:04:01;;;;;;;2.63;2.00;;;31.20;51.80;;;;;;5116838;27;20210;-69
2022/09/04 12:06:44;;;;;;;4.17;1.80;;;31.30;51.80;;;;;;5102185;27;20544;-69
2022/09/04 12:09:36;;;;;;;2.43;1.80;;;31.50;52.10;;;;;;5117426;27;20196;-69
2022/09/04 12:12:09;;;;;;;2.20;1.70;;;31.60;51.40;;;;;;5106492;27;20569;-69
2022/09/04 12:14:48;;;;;;;3.90;1.90;;;31.60;50.00;;;;;;5114268;27;20211;-69
2022/09/04 12:17:34;;;;;;;2.30;1.73;;;31.50;51.80;;;;;;5117906;27;20199;-68
2022/09/04 12:20:39;;;;;;;2.20;2.00;;;31.30;50.90;;;;;;5119009;27;20223;-68
2022/09/04 12:23:18;;;;;;;2.00;1.70;;;31.10;50.30;;;;;;5098616;27;20529;-68
2022/09/04 12:26:00;;;;;;;1.97;1.80;;;31.10;51.70;;;;;;5120460;27;20200;-69
2022/09/04 12:28:45;;;;;;;2.07;1.80;;;31.10;52.40;;;;;;5114171;27;20532;-69
2022/09/04 12:31:50;;;;;;;1.93;1.83;;;31.20;51.90;;;;;;5081075;27;20226;-69
2022/09/04 12:34:59;;;;;;;3.90;2.30;;;31.20;52.60;;;;;;5079360;28;20511;-69
2022/09/04 12:37:42;;;;;;;3.17;1.90;;;31.30;52.30;;;;;;5111937;27;20688;-69
2022/09/04 12:40:30;;;;;;;2.37;2.17;;;31.40;50.50;;;;;;5113037;27;20222;-69
2022/09/04 12:43:03;;;;;;;4.00;2.07;;;31.30;51.30;;;;;;5119455;27;20191;-69
2022/09/04 12:45:45;;;;;;;3.83;1.77;;;31.20;52.00;;;;;;5116144;27;20638;-69
2022/09/04 12:48:43;;;;;;;2.00;1.80;;;31.20;51.80;;;;;;5123633;27;20251;-69
2022/09/04 12:51:23;;;;;;;2.27;1.77;;;31.30;51.80;;;;;;5118279;27;20204;-69
2022/09/04 12:54:11;;;;;;;4.77;2.00;;;31.20;49.90;;;;;;5081243;28;20197;-69
2022/09/04 12:57:10;;;;;;;3.33;2.00;;;31.10;50.60;;;;;;5116654;27;20249;-69
2022/09/04 13:00:31;;;;;;;4.37;2.17;;;31.10;50.80;;;;;;5077472;28;20213;-69
2022/09/04 13:03:40;;;;;;;1.97;1.77;;;31.10;50.80;;;;;;5114792;28;20201;-73
2022/09/04 13:06:27;;;;;;;3.23;1.90;;;31.20;50.90;;;;;;5117502;28;20529;-73
2022/09/04 13:09:06;;;;;;;3.10;1.87;;;31.30;50.90;;;;;;5108277;28;20224;-73
2022/09/04 13:12:02;;;;;;;2.20;1.80;;;31.40;51.30;;;;;;5112911;28;20205;-73
2022/09/04 13:15:06;;;;;;;3.83;1.90;;;31.40;50.90;;;;;;5106994;28;20212;-72
2022/09/04 13:18:20;;;;;;;2.97;1.77;;;31.40;51.70;;;;;;5116426;28;20535;-73
2022/09/04 13:21:04;;;;;;;2.27;1.67;;;31.40;51.40;;;;;;5035026;28;20216;-72
2022/09/04 13:23:51;;;;;;;1.90;1.80;;;31.40;52.00;;;;;;5082091;28;20218;-73
2022/09/04 13:26:43;;;;;;;3.03;2.00;;;31.20;51.80;;;;;;5092055;27;20627;-73
2022/09/04 13:29:29;;;;;;;3.23;1.87;;;31.10;52.10;;;;;;5111485;27;20211;-72
2022/09/04 13:32:09;;;;;;;1.90;1.63;;;31.10;51.80;;;;;;5120073;27;20520;-72
2022/09/04 13:34:43;;;;;;;3.73;2.43;;;31.00;51.80;;;;;;5107333;28;20212;-72
2022/09/04 13:37:58;;;;;;;3.53;1.83;;;30.90;50.90;;;;;;5119112;27;20210;-73
2022/09/04 13:41:03;;;;;;;1.97;1.87;;;30.90;51.70;;;;;;5097931;27;20212;-72
2022/09/04 13:43:43;;;;;;;3.07;1.97;;;30.80;51.40;;;;;;5116473;27;20672;-72
2022/09/04 13:46:17;;;;;;;4.00;2.17;;;30.70;50.90;;;;;;5098140;27;20206;-72
2022/09/04 13:49:15;;;;;;;2.47;2.00;;;30.70;51.50;;;;;;5122812;27;20215;-72
2022/09/04 13:51:58;;;;;;;3.47;1.80;;;30.70;51.40;;;;;;5119805;27;20200;-72
2022/09/04 13:54:25;;;;;;;3.60;1.90;;;30.70;51.80;;;;;;5099384;27;20211;-72
2022/09/04 13:57:15;;;;;;;1.63;1.53;;;30.80;52.50;;;;;;5124822;27;20811;-72
2022/09/04 13:59:48;;;;;;;3.43;2.00;;;30.80;51.90;;;;;;5117969;27;20204;-72
2022/09/04 14:02:23;;;;;;;2.00;1.90;;;30.80;51.10;;;;;;5113353;27;20200;-72
2022/09/04 14:05:00;;;;;;;2.27;2.10;;;30.80;51.50;;;;;;5102430;27;20208;-72
2022/09/04 14:07:37;;;;;;;4.83;1.80;;;30.90;52.00;;;;;;5125155;27;20307;-73
2022/09/04 14:10:34;;;;;;;2.83;1.80;;;30.90;52.80;;;;;;5118660;27;20196;-73
2022/09/04 14:13:13;;;;;;;1.90;1.80;;;30.90;51.00;;;;;;5091413;27;20214;-72
2022/09/04 14:16:07;;;;;;;1.90;1.73;;;30.80;51.10;;;;;;5117958;27;20223;-73
2022/09/04 14:19:03;;;;;;;7.13;2.40;;;30.70;50.90;;;;;;5120960;27;20617;-73
2022/09/04 14:22:02;;;;;;;2.87;1.80;;;30.60;51.30;;;;;;5122389;27;20219;-73
2022/09/04 14:24:46;;;;;;;2.33;1.83;;;30.60;51.30;;;;;;5116354;27;20200;-72
2022/09/04 14:27:23;;;;;;;3.50;1.80;;;30.50;51.60;;;;;;5110347;27;20537;-73
2022/09/04 14:30:14;;;;;;;2.87;2.10;;;30.40;50.90;;;;;;5099864;27;20201;-72